createdAt,value
2023-04-03T00:00:19.140Z,91.44
2023-04-03T00:01:42.294Z,91.42
2023-04-03T00:02:45.857Z,91.30
2023-04-03T00:03:48.972Z,91.31
2023-04-03T00:04:52.354Z,91.34
2023-04-03T00:05:55.773Z,91.31
2023-04-03T00:06:58.706Z,91.33
2023-04-03T00:08:03.588Z,91.33
2023-04-03T00:09:08.704Z,91.36
2023-04-03T00:10:13.476Z,91.31
2023-04-03T00:11:16.716Z,91.36
2023-04-03T00:12:19.557Z,91.20
2023-04-03T00:13:22.761Z,91.08
2023-04-03T00:14:25.687Z,90.99
2023-04-03T00:15:28.748Z,91.04
2023-04-03T00:16:31.832Z,91.21
2023-04-03T00:17:34.820Z,91.07
2023-04-03T00:18:39.140Z,91.00
2023-04-03T00:19:42.031Z,90.82
2023-04-03T00:20:44.952Z,90.79
2023-04-03T00:21:47.802Z,90.83
2023-04-03T00:22:50.651Z,90.90
2023-04-03T00:23:53.595Z,90.86
2023-04-03T00:24:56.744Z,90.90
2023-04-03T00:25:59.620Z,90.95
2023-04-03T00:27:02.491Z,90.80
2023-04-03T00:28:05.965Z,90.69
2023-04-03T00:29:08.852Z,90.79
2023-04-03T00:30:15.501Z,90.66
2023-04-03T00:31:18.521Z,90.67
2023-04-03T00:32:21.424Z,90.66
2023-04-03T00:33:25.612Z,90.81
2023-04-03T00:34:29.040Z,90.69
2023-04-03T00:35:32.162Z,90.76
2023-04-03T00:36:35.409Z,90.86
2023-04-03T00:37:38.419Z,90.76
2023-04-03T00:38:41.455Z,90.67
2023-04-03T00:39:44.324Z,90.76
2023-04-03T00:40:49.640Z,90.60
2023-04-03T00:41:52.670Z,90.51
2023-04-03T00:43:00.545Z,90.48
2023-04-03T00:44:34.462Z,90.43
2023-04-03T00:45:40.344Z,90.25
2023-04-03T00:46:43.332Z,90.40
2023-04-03T00:47:46.977Z,90.42
2023-04-03T00:48:50.557Z,90.51
2023-04-03T00:49:54.901Z,90.51
2023-04-03T00:50:58.497Z,90.41
2023-04-03T00:52:01.621Z,90.49
2023-04-03T00:53:07.350Z,90.50
2023-04-03T00:54:10.924Z,90.44
2023-04-03T00:55:15.385Z,90.43
2023-04-03T00:56:22.878Z,90.42
2023-04-03T00:57:26.187Z,90.39
2023-04-03T00:58:41.027Z,90.45
2023-04-03T00:59:47.914Z,90.28
2023-04-03T01:00:58.590Z,90.45
2023-04-03T01:02:01.886Z,90.45
2023-04-03T01:03:05.473Z,90.28
2023-04-03T01:04:37.991Z,90.18
2023-04-03T01:05:41.669Z,90.20
2023-04-03T01:06:44.847Z,90.25
2023-04-03T01:07:50.591Z,90.23
2023-04-03T01:08:54.384Z,90.21
2023-04-03T01:10:00.791Z,90.20
2023-04-03T01:11:03.786Z,90.29
2023-04-03T01:12:19.638Z,90.26
2023-04-03T01:13:29.134Z,90.33
2023-04-03T01:14:32.089Z,90.18
2023-04-03T01:15:36.159Z,90.29
2023-04-03T01:16:39.647Z,90.11
2023-04-03T01:17:54.879Z,90.13
2023-04-03T01:18:58.758Z,90.17
2023-04-03T01:20:32.521Z,90.12
2023-04-03T01:22:03.994Z,90.18
2023-04-03T01:23:09.885Z,90.31
2023-04-03T01:24:18.626Z,90.23
2023-04-03T01:25:21.998Z,90.17
2023-04-03T01:26:26.659Z,90.24
2023-04-03T01:27:29.511Z,90.17
2023-04-03T01:28:36.334Z,90.25
2023-04-03T01:29:41.187Z,90.23
2023-04-03T01:30:46.856Z,90.19
2023-04-03T01:31:53.169Z,90.22
2023-04-03T01:32:56.217Z,90.11
2023-04-03T01:33:59.592Z,90.11
2023-04-03T01:35:03.292Z,90.09
2023-04-03T01:36:07.373Z,90.13
2023-04-03T01:37:10.979Z,90.19
2023-04-03T01:38:13.935Z,90.05
2023-04-03T01:39:16.837Z,90.06
2023-04-03T01:40:20.153Z,90.04
2023-04-03T01:41:23.672Z,90.13
2023-04-03T01:42:27.547Z,90.08
2023-04-03T01:43:30.498Z,90.07
2023-04-03T01:44:33.518Z,90.11
2023-04-03T01:45:36.732Z,89.94
2023-04-03T01:46:39.844Z,90.25
2023-04-03T01:47:42.844Z,90.06
2023-04-03T01:48:46.003Z,90.08
2023-04-03T01:49:49.088Z,90.06
2023-04-03T01:50:52.046Z,90.04
2023-04-03T01:51:55.279Z,90.15
2023-04-03T01:52:58.382Z,90.09
2023-04-03T01:54:01.426Z,89.99
2023-04-03T01:55:04.630Z,90.01
2023-04-03T01:56:08.016Z,89.99
2023-04-03T01:57:11.512Z,90.04
2023-04-03T01:58:14.538Z,89.94
2023-04-03T01:59:18.917Z,90.03
2023-04-03T02:00:21.873Z,89.95
2023-04-03T02:01:24.961Z,89.98
2023-04-03T02:02:27.895Z,89.97
2023-04-03T02:03:32.031Z,89.96
2023-04-03T02:04:35.449Z,89.84
2023-04-03T02:05:39.014Z,89.87
2023-04-03T02:06:42.335Z,89.95
2023-04-03T02:07:45.672Z,89.85
2023-04-03T02:08:48.585Z,89.88
2023-04-03T02:09:52.208Z,89.84
2023-04-03T02:10:55.293Z,89.88
2023-04-03T02:11:58.188Z,89.89
2023-04-03T02:13:01.144Z,89.81
2023-04-03T02:14:04.074Z,89.84
2023-04-03T02:15:07.396Z,89.73
2023-04-03T02:16:12.386Z,89.69
2023-04-03T02:17:16.099Z,89.80
2023-04-03T02:18:19.151Z,89.89
2023-04-03T02:19:22.061Z,89.81
2023-04-03T02:20:25.134Z,89.79
2023-04-03T02:21:28.906Z,89.82
2023-04-03T02:22:32.150Z,89.78
2023-04-03T02:23:37.643Z,89.74
2023-04-03T02:24:41.411Z,89.74
2023-04-03T02:25:44.266Z,89.75
2023-04-03T02:26:47.159Z,89.77
2023-04-03T02:27:50.110Z,89.81
2023-04-03T02:28:53.107Z,89.87
2023-04-03T02:29:56.063Z,89.79
2023-04-03T02:30:59.130Z,89.75
2023-04-03T02:32:02.268Z,89.83
2023-04-03T02:33:05.735Z,89.77
2023-04-03T02:34:08.634Z,89.78
2023-04-03T02:35:12.906Z,89.75
2023-04-03T02:36:16.711Z,89.75
2023-04-03T02:37:22.286Z,89.79
2023-04-03T02:38:26.719Z,89.75
2023-04-03T02:39:29.962Z,89.61
2023-04-03T02:40:33.169Z,89.58
2023-04-03T02:41:36.618Z,89.53
2023-04-03T02:42:41.670Z,89.58
2023-04-03T02:43:44.582Z,89.64
2023-04-03T02:44:47.661Z,89.74
2023-04-03T02:45:50.518Z,89.70
2023-04-03T02:46:53.412Z,89.61
2023-04-03T02:47:56.377Z,89.57
2023-04-03T02:48:59.914Z,89.65
2023-04-03T02:50:03.048Z,89.66
2023-04-03T02:51:08.245Z,89.66
2023-04-03T02:52:11.341Z,89.65
2023-04-03T02:53:14.570Z,89.60
2023-04-03T02:54:17.456Z,89.66
2023-04-03T02:55:24.281Z,89.64
2023-04-03T02:56:28.244Z,89.54
2023-04-03T02:57:31.506Z,89.50
2023-04-03T02:58:37.622Z,89.52
2023-04-03T02:59:45.376Z,89.56
2023-04-03T03:00:49.130Z,89.51
2023-04-03T03:01:52.089Z,89.49
2023-04-03T03:02:55.165Z,89.42
2023-04-03T03:03:59.201Z,89.47
2023-04-03T03:05:02.534Z,89.47
2023-04-03T03:06:11.896Z,89.47
2023-04-03T03:07:16.370Z,89.53
2023-04-03T03:08:21.320Z,89.46
2023-04-03T03:09:24.528Z,89.45
2023-04-03T03:10:27.416Z,89.37
2023-04-03T03:11:31.310Z,89.51
2023-04-03T03:12:34.309Z,89.49
2023-04-03T03:13:38.070Z,89.44
2023-04-03T03:14:41.658Z,89.34
2023-04-03T03:15:45.273Z,89.44
2023-04-03T03:16:48.230Z,89.56
2023-04-03T03:17:51.441Z,89.56
2023-04-03T03:18:54.383Z,89.51
2023-04-03T03:19:57.343Z,89.47
2023-04-03T03:21:01.558Z,89.53
2023-04-03T03:22:04.463Z,89.57
2023-04-03T03:23:07.362Z,89.38
2023-04-03T03:24:10.493Z,89.32
2023-04-03T03:25:13.397Z,89.37
2023-04-03T03:26:16.590Z,89.40
2023-04-03T03:27:19.513Z,89.35
2023-04-03T03:28:22.449Z,89.40
2023-04-03T03:29:25.696Z,89.40
2023-04-03T03:30:28.703Z,89.42
2023-04-03T03:31:31.661Z,89.43
2023-04-03T03:32:35.080Z,89.56
2023-04-03T03:33:38.344Z,89.51
2023-04-03T03:34:41.482Z,89.39
2023-04-03T03:35:45.057Z,89.43
2023-04-03T03:36:48.141Z,89.61
2023-04-03T03:37:51.328Z,89.57
2023-04-03T03:38:54.276Z,89.52
2023-04-03T03:39:57.538Z,89.38
2023-04-03T03:41:00.776Z,89.56
2023-04-03T03:42:04.447Z,89.61
2023-04-03T03:43:07.464Z,89.59
2023-04-03T03:44:10.694Z,89.49
2023-04-03T03:45:14.122Z,89.38
2023-04-03T03:46:18.016Z,89.34
2023-04-03T03:47:21.367Z,89.41
2023-04-03T03:48:24.676Z,89.35
2023-04-03T03:49:27.684Z,89.38
2023-04-03T03:50:31.008Z,89.39
2023-04-03T03:51:33.978Z,89.51
2023-04-03T03:52:36.948Z,89.42
2023-04-03T03:53:39.844Z,89.40
2023-04-03T03:54:44.101Z,89.52
2023-04-03T03:55:47.368Z,89.58
2023-04-03T03:56:50.486Z,89.52
2023-04-03T03:57:53.506Z,89.44
2023-04-03T03:58:57.272Z,89.55
2023-04-03T04:00:00.493Z,89.55
2023-04-03T04:01:07.866Z,89.33
2023-04-03T04:02:15.715Z,89.37
2023-04-03T04:03:19.095Z,89.45
2023-04-03T04:04:23.150Z,89.37
2023-04-03T04:05:26.798Z,89.44
2023-04-03T04:06:30.220Z,89.39
2023-04-03T04:07:36.084Z,89.43
2023-04-03T04:08:39.508Z,89.27
2023-04-03T04:09:43.126Z,89.34
2023-04-03T04:10:46.134Z,89.43
2023-04-03T04:11:50.661Z,89.38
2023-04-03T04:12:57.412Z,89.44
2023-04-03T04:14:02.126Z,89.49
2023-04-03T04:15:06.289Z,89.44
2023-04-03T04:16:10.916Z,89.41
2023-04-03T04:17:15.710Z,89.30
2023-04-03T04:18:19.049Z,89.30
2023-04-03T04:19:22.831Z,89.35
2023-04-03T04:20:25.915Z,89.41
2023-04-03T04:21:29.542Z,89.24
2023-04-03T04:22:33.056Z,89.41
2023-04-03T04:23:36.066Z,89.45
2023-04-03T04:24:39.984Z,89.39
2023-04-03T04:25:48.057Z,89.40
2023-04-03T04:26:51.404Z,89.33
2023-04-03T04:27:54.363Z,89.46
2023-04-03T04:28:57.351Z,89.33
2023-04-03T04:30:00.430Z,89.43
2023-04-03T04:31:03.747Z,89.37
2023-04-03T04:32:07.444Z,89.45
2023-04-03T04:33:11.226Z,89.42
2023-04-03T04:34:15.209Z,89.58
2023-04-03T04:35:18.904Z,89.44
2023-04-03T04:36:23.556Z,89.38
2023-04-03T04:37:26.531Z,89.47
2023-04-03T04:38:29.922Z,89.55
2023-04-03T04:39:33.426Z,89.63
2023-04-03T04:40:36.842Z,89.53
2023-04-03T04:41:40.290Z,89.54
2023-04-03T04:42:43.299Z,89.59
2023-04-03T04:43:46.542Z,89.49
2023-04-03T04:44:49.445Z,89.47
2023-04-03T04:46:08.659Z,89.44
2023-04-03T04:47:15.697Z,89.40
2023-04-03T04:48:18.874Z,89.39
2023-04-03T04:49:22.671Z,89.36
2023-04-03T04:50:26.006Z,89.40
2023-04-03T04:51:35.153Z,89.49
2023-04-03T04:52:44.819Z,89.48
2023-04-03T04:53:47.762Z,89.49
2023-04-03T04:54:52.423Z,89.41
2023-04-03T04:55:56.140Z,89.45
2023-04-03T04:56:59.407Z,89.44
2023-04-03T04:58:02.885Z,89.41
2023-04-03T04:59:06.747Z,89.37
2023-04-03T05:00:10.647Z,89.30
2023-04-03T05:01:14.370Z,89.43
2023-04-03T05:02:26.338Z,89.17
2023-04-03T05:03:30.310Z,89.40
2023-04-03T05:04:34.357Z,89.30
2023-04-03T05:05:42.028Z,89.36
2023-04-03T05:06:44.923Z,89.27
2023-04-03T05:08:02.400Z,89.18
2023-04-03T05:09:06.215Z,89.28
2023-04-03T05:10:10.618Z,89.29
2023-04-03T05:11:14.030Z,89.21
2023-04-03T05:12:18.816Z,89.29
2023-04-03T05:13:26.494Z,89.31
2023-04-03T05:14:30.242Z,89.33
2023-04-03T05:15:40.794Z,89.35
2023-04-03T05:16:44.533Z,89.29
2023-04-03T05:17:48.180Z,89.35
2023-04-03T05:18:51.295Z,89.32
2023-04-03T05:19:55.980Z,89.30
2023-04-03T05:20:59.783Z,89.26
2023-04-03T05:22:03.595Z,89.28
2023-04-03T05:23:06.838Z,89.24
2023-04-03T05:24:10.777Z,89.25
2023-04-03T05:25:16.074Z,89.13
2023-04-03T05:26:20.974Z,89.22
2023-04-03T05:27:25.274Z,89.09
2023-04-03T05:28:30.329Z,89.19
2023-04-03T05:29:33.386Z,89.03
2023-04-03T05:30:36.515Z,88.97
2023-04-03T05:31:39.578Z,88.92
2023-04-03T05:32:43.997Z,88.93
2023-04-03T05:33:54.419Z,88.89
2023-04-03T05:34:59.459Z,88.90
2023-04-03T05:36:06.524Z,88.84
2023-04-03T05:37:11.226Z,88.89
2023-04-03T05:38:14.764Z,88.77
2023-04-03T05:39:17.890Z,88.76
2023-04-03T05:40:21.608Z,88.61
2023-04-03T05:41:26.003Z,88.34
2023-04-03T05:42:28.907Z,88.47
2023-04-03T05:43:31.800Z,88.51
2023-04-03T05:44:34.831Z,88.38
2023-04-03T05:45:38.615Z,88.38
2023-04-03T05:46:42.506Z,88.28
2023-04-03T05:47:45.857Z,88.28
2023-04-03T05:48:49.439Z,88.26
2023-04-03T05:49:54.600Z,88.29
2023-04-03T05:50:57.641Z,88.28
2023-04-03T05:52:02.478Z,88.35
2023-04-03T05:53:06.986Z,88.56
2023-04-03T05:54:19.049Z,88.45
2023-04-03T05:55:22.435Z,88.25
2023-04-03T05:56:26.599Z,88.17
2023-04-03T05:57:29.734Z,88.08
2023-04-03T05:58:32.630Z,87.97
2023-04-03T05:59:35.450Z,88.07
2023-04-03T06:00:38.532Z,87.41
2023-04-03T06:01:41.646Z,87.53
2023-04-03T06:02:44.892Z,87.44
2023-04-03T06:03:53.086Z,87.81
2023-04-03T06:04:56.440Z,87.95
2023-04-03T06:05:59.403Z,87.73
2023-04-03T06:07:02.355Z,87.67
2023-04-03T06:08:05.339Z,87.42
2023-04-03T06:09:09.455Z,86.95
2023-04-03T06:10:13.832Z,86.50
2023-04-03T06:11:17.486Z,86.39
2023-04-03T06:12:21.112Z,86.28
2023-04-03T06:13:24.873Z,85.87
2023-04-03T06:14:28.434Z,85.80
2023-04-03T06:15:31.562Z,85.74
2023-04-03T06:16:35.396Z,85.98
2023-04-03T06:17:40.003Z,86.58
2023-04-03T06:18:44.794Z,86.74
2023-04-03T06:19:48.586Z,87.17
2023-04-03T06:20:51.971Z,87.21
2023-04-03T06:21:55.271Z,86.41
2023-04-03T06:23:00.033Z,86.03
2023-04-03T06:24:06.475Z,86.74
2023-04-03T06:25:10.505Z,86.47
2023-04-03T06:26:13.387Z,85.83
2023-04-03T06:27:16.702Z,85.63
2023-04-03T06:28:20.381Z,85.66
2023-04-03T06:29:23.808Z,85.60
2023-04-03T06:30:26.762Z,86.34
2023-04-03T06:31:29.755Z,86.60
2023-04-03T06:32:32.723Z,86.36
2023-04-03T06:33:35.879Z,86.45
2023-04-03T06:34:38.974Z,86.79
2023-04-03T06:35:41.968Z,86.66
2023-04-03T06:36:46.268Z,86.16
2023-04-03T06:37:49.150Z,86.19
2023-04-03T06:38:52.346Z,86.22
2023-04-03T06:39:55.834Z,85.58
2023-04-03T06:40:59.324Z,85.08
2023-04-03T06:42:02.228Z,84.62
2023-04-03T06:43:11.914Z,84.13
2023-04-03T06:44:16.807Z,83.76
2023-04-03T06:45:20.426Z,83.52
2023-04-03T06:46:23.718Z,83.68
2023-04-03T06:47:27.235Z,84.20
2023-04-03T06:48:30.661Z,84.10
2023-04-03T06:49:33.730Z,84.21
2023-04-03T06:50:36.633Z,83.31
2023-04-03T06:51:39.683Z,83.22
2023-04-03T06:52:42.794Z,83.55
2023-04-03T06:53:46.817Z,84.29
2023-04-03T06:54:49.680Z,84.04
2023-04-03T06:55:52.523Z,83.68
2023-04-03T06:56:55.564Z,83.42
2023-04-03T06:57:58.500Z,83.34
2023-04-03T06:59:02.357Z,83.78
2023-04-03T07:00:07.942Z,83.24
2023-04-03T07:01:11.977Z,82.71
2023-04-03T07:02:15.871Z,83.30
2023-04-03T07:03:19.162Z,83.59
2023-04-03T07:04:22.090Z,83.49
2023-04-03T07:05:25.847Z,83.34
2023-04-03T07:06:28.959Z,83.53
2023-04-03T07:07:31.834Z,83.31
2023-04-03T07:08:35.844Z,82.08
2023-04-03T07:09:38.857Z,82.16
2023-04-03T07:10:41.857Z,82.72
2023-04-03T07:11:44.957Z,82.49
2023-04-03T07:12:47.860Z,82.23
2023-04-03T07:13:51.486Z,82.06
2023-04-03T07:14:54.748Z,82.62
2023-04-03T07:15:58.684Z,82.22
2023-04-03T07:17:04.950Z,81.56
2023-04-03T07:18:07.941Z,81.88
2023-04-03T07:19:10.948Z,81.79
2023-04-03T07:20:14.166Z,81.89
2023-04-03T07:21:17.055Z,81.55
2023-04-03T07:22:19.964Z,81.80
2023-04-03T07:23:23.154Z,82.34
2023-04-03T07:24:26.097Z,82.09
2023-04-03T07:25:29.722Z,81.35
2023-04-03T07:26:32.638Z,81.66
2023-04-03T07:27:35.662Z,81.89
2023-04-03T07:28:39.569Z,81.25
2023-04-03T07:29:42.462Z,81.30
2023-04-03T07:30:51.145Z,81.45
2023-04-03T07:31:54.867Z,81.63
2023-04-03T07:32:57.831Z,81.68
2023-04-03T07:34:00.863Z,81.89
2023-04-03T07:35:04.439Z,81.66
2023-04-03T07:36:08.579Z,81.31
2023-04-03T07:37:11.745Z,81.25
2023-04-03T07:38:14.815Z,80.92
2023-04-03T07:39:17.679Z,81.04
2023-04-03T07:40:20.904Z,81.02
2023-04-03T07:41:24.459Z,81.10
2023-04-03T07:42:30.152Z,81.34
2023-04-03T07:43:33.881Z,81.28
2023-04-03T07:44:37.653Z,81.43
2023-04-03T07:45:40.975Z,81.00
2023-04-03T07:46:44.194Z,79.93
2023-04-03T07:47:47.271Z,79.83
2023-04-03T07:48:50.553Z,79.68
2023-04-03T07:49:53.529Z,80.56
2023-04-03T07:51:02.050Z,80.36
2023-04-03T07:52:05.349Z,79.81
2023-04-03T07:53:08.957Z,80.12
2023-04-03T07:54:12.069Z,80.15
2023-04-03T07:55:15.543Z,80.04
2023-04-03T07:56:18.524Z,80.11
2023-04-03T07:57:21.434Z,79.98
2023-04-03T07:58:24.337Z,80.33
2023-04-03T07:59:27.194Z,80.07
2023-04-03T08:00:30.737Z,80.58
2023-04-03T08:01:34.804Z,80.26
2023-04-03T08:02:38.123Z,79.91
2023-04-03T08:03:41.543Z,79.27
2023-04-03T08:04:44.741Z,79.35
2023-04-03T08:05:49.741Z,79.77
2023-04-03T08:06:53.227Z,78.75
2023-04-03T08:07:56.143Z,79.43
2023-04-03T08:09:00.005Z,79.48
2023-04-03T08:10:02.900Z,79.29
2023-04-03T08:11:07.080Z,79.21
2023-04-03T08:12:12.505Z,79.48
2023-04-03T08:13:15.895Z,79.36
2023-04-03T08:14:19.639Z,79.64
2023-04-03T08:15:23.082Z,79.97
2023-04-03T08:16:28.038Z,79.78
2023-04-03T08:17:31.513Z,79.30
2023-04-03T08:18:34.577Z,78.99
2023-04-03T08:19:37.576Z,78.65
2023-04-03T08:20:41.522Z,78.39
2023-04-03T08:21:45.451Z,78.62
2023-04-03T08:22:48.536Z,78.56
2023-04-03T08:23:52.120Z,78.53
2023-04-03T08:24:59.461Z,78.44
2023-04-03T08:26:11.536Z,78.82
2023-04-03T08:27:14.461Z,79.14
2023-04-03T08:28:17.421Z,79.45
2023-04-03T08:29:20.524Z,80.04
2023-04-03T08:30:23.510Z,79.70
2023-04-03T08:31:26.398Z,79.80
2023-04-03T08:32:29.369Z,79.33
2023-04-03T08:33:32.344Z,79.67
2023-04-03T08:34:36.014Z,79.68
2023-04-03T08:35:41.729Z,79.01
2023-04-03T08:36:44.992Z,78.28
2023-04-03T08:37:47.914Z,78.76
2023-04-03T08:38:52.090Z,78.95
2023-04-03T08:39:55.264Z,78.87
2023-04-03T08:41:05.706Z,78.85
2023-04-03T08:42:20.847Z,78.69
2023-04-03T08:43:48.332Z,78.96
2023-04-03T08:45:10.425Z,79.03
2023-04-03T08:46:17.502Z,78.56
2023-04-03T08:47:25.396Z,78.84
2023-04-03T08:48:34.174Z,78.25
2023-04-03T08:49:48.295Z,78.36
2023-04-03T08:50:57.751Z,78.21
2023-04-03T08:52:05.206Z,77.49
2023-04-03T08:53:19.716Z,77.45
2023-04-03T08:54:32.932Z,76.56
2023-04-03T08:55:51.169Z,76.52
2023-04-03T08:56:54.718Z,76.69
2023-04-03T08:58:06.368Z,77.13
2023-04-03T08:59:15.134Z,76.58
2023-04-03T09:00:23.666Z,77.23
2023-04-03T09:01:36.525Z,76.88
2023-04-03T09:02:48.171Z,77.74
2023-04-03T09:03:52.011Z,77.28
2023-04-03T09:04:55.069Z,76.55
2023-04-03T09:06:23.809Z,76.16
2023-04-03T09:07:40.390Z,77.46
2023-04-03T09:08:59.488Z,77.40
2023-04-03T09:10:04.254Z,78.22
2023-04-03T09:11:32.653Z,77.81
2023-04-03T09:12:40.725Z,76.85
2023-04-03T09:13:58.832Z,76.53
2023-04-03T09:15:35.425Z,76.63
2023-04-03T09:16:59.268Z,77.20
2023-04-03T09:18:36.948Z,77.32
2023-04-03T09:19:50.670Z,76.88
2023-04-03T09:21:20.096Z,76.54
2023-04-03T09:22:27.942Z,77.17
2023-04-03T09:23:37.738Z,77.09
2023-04-03T09:24:41.321Z,76.36
2023-04-03T09:25:44.980Z,76.28
2023-04-03T09:26:54.893Z,76.67
2023-04-03T09:27:57.849Z,76.60
2023-04-03T09:29:06.832Z,76.75
2023-04-03T09:30:25.327Z,76.62
2023-04-03T09:31:35.294Z,76.51
2023-04-03T09:32:38.382Z,77.19
2023-04-03T09:33:42.156Z,76.78
2023-04-03T09:34:46.406Z,76.26
2023-04-03T09:35:50.816Z,76.37
2023-04-03T09:36:56.728Z,76.63
2023-04-03T09:38:15.426Z,77.20
2023-04-03T09:39:20.347Z,76.93
2023-04-03T09:40:26.380Z,76.66
2023-04-03T09:41:29.456Z,77.38
2023-04-03T09:42:33.897Z,77.47
2023-04-03T09:43:39.938Z,77.27
2023-04-03T09:44:43.301Z,76.77
2023-04-03T09:45:48.370Z,77.58
2023-04-03T09:46:51.704Z,78.02
2023-04-03T09:48:17.715Z,76.47
2023-04-03T09:51:17.000Z,75.79
2023-04-03T09:52:30.033Z,74.73
2023-04-03T09:53:40.983Z,73.80
2023-04-03T09:54:43.910Z,75.16
2023-04-03T09:55:47.154Z,75.13
2023-04-03T09:56:52.614Z,75.88
2023-04-03T09:57:59.326Z,75.54
2023-04-03T09:59:04.846Z,75.52
2023-04-03T10:00:22.909Z,76.07
2023-04-03T10:01:37.907Z,75.37
2023-04-03T10:02:43.916Z,75.41
2023-04-03T10:03:47.798Z,75.13
2023-04-03T10:05:02.473Z,74.48
2023-04-03T10:06:25.371Z,74.93
2023-04-03T10:07:46.420Z,75.25
2023-04-03T10:09:05.530Z,75.54
2023-04-03T10:10:23.902Z,76.28
2023-04-03T10:11:27.682Z,75.18
2023-04-03T10:12:31.055Z,74.67
2023-04-03T10:13:38.988Z,73.88
2023-04-03T10:15:01.820Z,74.12
2023-04-03T10:16:10.165Z,75.14
2023-04-03T10:17:24.250Z,75.57
2023-04-03T10:18:36.387Z,75.96
2023-04-03T10:19:48.550Z,76.50
2023-04-03T10:20:55.199Z,75.31
2023-04-03T10:22:10.784Z,76.08
2023-04-03T10:23:23.313Z,75.46
2023-04-03T10:24:37.097Z,75.25
2023-04-03T10:26:14.806Z,74.99
2023-04-03T10:27:22.365Z,74.66
2023-04-03T10:28:42.031Z,75.50
2023-04-03T10:29:56.819Z,74.71
2023-04-03T10:31:07.668Z,73.42
2023-04-03T10:32:32.347Z,74.06
2023-04-03T10:33:53.794Z,73.94
2023-04-03T10:35:33.049Z,74.23
2023-04-03T10:37:25.976Z,72.91
2023-04-03T10:38:40.906Z,73.53
2023-04-03T10:40:02.782Z,74.64
2023-04-03T10:41:23.189Z,73.29
2023-04-03T10:42:49.448Z,73.13
2023-04-03T10:43:57.929Z,72.34
2023-04-03T10:45:06.434Z,72.58
2023-04-03T10:46:19.333Z,72.29
2023-04-03T10:47:34.096Z,72.15
2023-04-03T10:48:50.200Z,72.21
2023-04-03T10:50:27.710Z,72.13
2023-04-03T10:51:47.129Z,70.93
2023-04-03T10:52:59.017Z,72.08
2023-04-03T10:54:27.140Z,73.02
2023-04-03T10:55:36.551Z,73.38
2023-04-03T10:56:39.370Z,73.52
2023-04-03T10:57:42.829Z,74.12
2023-04-03T10:58:59.565Z,73.99
2023-04-03T11:00:10.189Z,73.19
2023-04-03T11:01:20.163Z,72.79
2023-04-03T11:02:33.847Z,72.47
2023-04-03T11:03:42.764Z,72.31
2023-04-03T11:04:53.296Z,71.23
2023-04-03T11:05:56.925Z,72.47
2023-04-03T11:07:11.184Z,72.11
2023-04-03T11:08:34.045Z,71.58
2023-04-03T11:09:42.667Z,71.62
2023-04-03T11:10:52.011Z,71.44
2023-04-03T11:12:06.288Z,72.20
2023-04-03T11:13:24.178Z,72.36
2023-04-03T11:14:31.628Z,72.72
2023-04-03T11:15:34.787Z,72.68
2023-04-03T11:16:53.619Z,72.00
2023-04-03T11:18:09.713Z,71.95
2023-04-03T11:19:24.513Z,72.50
2023-04-03T11:20:34.172Z,72.96
2023-04-03T11:21:57.243Z,72.87
2023-04-03T11:23:22.096Z,71.93
2023-04-03T11:24:32.659Z,71.66
2023-04-03T11:25:38.766Z,72.17
2023-04-03T11:26:43.603Z,71.73
2023-04-03T11:27:56.028Z,71.16
2023-04-03T11:29:07.019Z,71.46
2023-04-03T11:30:24.662Z,71.50
2023-04-03T11:31:27.775Z,70.93
2023-04-03T11:32:39.452Z,71.00
2023-04-03T11:34:37.418Z,71.10
2023-04-03T11:35:47.251Z,70.48
2023-04-03T11:36:51.825Z,71.34
2023-04-03T11:37:55.326Z,70.65
2023-04-03T11:39:00.390Z,71.29
2023-04-03T11:40:10.390Z,70.65
2023-04-03T11:41:14.834Z,70.32
2023-04-03T11:42:23.647Z,70.08
2023-04-03T11:43:27.971Z,70.71
2023-04-03T11:44:35.685Z,70.70
2023-04-03T11:45:51.061Z,70.47
2023-04-03T11:46:57.533Z,70.49
2023-04-03T11:48:20.861Z,69.58
2023-04-03T11:49:45.025Z,69.35
2023-04-03T11:50:48.913Z,70.14
2023-04-03T11:51:52.130Z,69.37
2023-04-03T11:52:56.735Z,69.60
2023-04-03T11:54:19.463Z,69.86
2023-04-03T12:01:00.416Z,67.47
2023-04-03T12:02:04.731Z,67.66
2023-04-03T12:03:27.733Z,68.35
2023-04-03T12:04:31.653Z,68.35
2023-04-03T12:06:48.358Z,69.33
2023-04-03T12:08:31.497Z,70.05
2023-04-03T12:09:56.557Z,68.80
2023-04-03T12:11:14.976Z,69.37
2023-04-03T12:12:39.685Z,69.41
2023-04-03T12:13:52.071Z,68.61
2023-04-03T12:14:55.041Z,69.22
2023-04-03T12:16:01.035Z,68.75
2023-04-03T12:17:04.629Z,69.38
2023-04-03T12:18:42.782Z,68.81
2023-04-03T12:19:47.586Z,68.14
2023-04-03T12:20:53.314Z,68.92
2023-04-03T12:21:58.588Z,69.21
2023-04-03T12:23:35.782Z,69.43
2023-04-03T12:24:43.423Z,68.61
2023-04-03T12:25:52.073Z,68.17
2023-04-03T12:27:01.189Z,68.75
2023-04-03T12:28:07.023Z,68.54
2023-04-03T12:29:23.093Z,68.04
2023-04-03T12:30:31.858Z,68.14
2023-04-03T12:31:47.222Z,68.73
2023-04-03T12:33:09.566Z,68.42
2023-04-03T12:34:27.892Z,68.91
2023-04-03T12:35:32.678Z,68.81
2023-04-03T12:36:45.033Z,68.80
2023-04-03T12:38:21.736Z,68.58
2023-04-03T12:39:50.456Z,67.77
2023-04-03T12:41:23.777Z,68.02
2023-04-03T12:42:37.409Z,67.97
2023-04-03T12:43:45.142Z,67.37
2023-04-03T12:45:03.288Z,66.99
2023-04-03T12:46:17.430Z,66.13
2023-04-03T12:47:24.182Z,67.43
2023-04-03T12:48:31.054Z,67.53
2023-04-03T12:49:40.729Z,66.80
2023-04-03T12:50:47.719Z,66.04
2023-04-03T12:51:51.185Z,65.94
2023-04-03T12:53:12.911Z,66.94
2023-04-03T12:54:36.109Z,65.96
2023-04-03T12:55:39.374Z,65.27
2023-04-03T12:56:42.576Z,65.76
2023-04-03T12:57:45.888Z,66.56
2023-04-03T12:58:50.654Z,65.95
2023-04-03T12:59:53.624Z,65.88
2023-04-03T13:01:12.610Z,66.12
2023-04-03T13:02:22.321Z,65.75
2023-04-03T13:03:31.141Z,66.26
2023-04-03T13:04:34.422Z,66.21
2023-04-03T13:05:38.265Z,66.51
2023-04-03T13:06:45.515Z,66.24
2023-04-03T13:08:00.491Z,67.18
2023-04-03T13:09:05.307Z,66.64
2023-04-03T13:10:08.854Z,67.55
2023-04-03T13:11:13.047Z,66.98
2023-04-03T13:12:17.328Z,67.09
2023-04-03T13:13:20.814Z,67.32
2023-04-03T13:14:26.520Z,67.38
2023-04-03T13:15:40.636Z,67.72
2023-04-03T13:17:13.868Z,67.73
2023-04-03T13:18:28.644Z,68.14
2023-04-03T13:19:32.206Z,67.87
2023-04-03T13:20:37.573Z,68.03
2023-04-03T13:21:40.722Z,67.65
2023-04-03T13:23:00.819Z,68.11
2023-04-03T13:24:14.905Z,67.73
2023-04-03T13:25:20.967Z,67.37
2023-04-03T13:26:27.148Z,66.80
2023-04-03T13:27:32.304Z,66.77
2023-04-03T13:28:37.037Z,67.44
2023-04-03T13:29:40.970Z,66.90
2023-04-03T13:31:02.867Z,66.88
2023-04-03T13:32:07.492Z,67.42
2023-04-03T13:33:25.998Z,67.38
2023-04-03T13:34:37.760Z,67.38
2023-04-03T13:35:42.914Z,67.20
2023-04-03T13:36:57.674Z,67.62
2023-04-03T13:38:06.672Z,67.93
2023-04-03T13:39:12.072Z,67.65
2023-04-03T13:41:42.368Z,68.02
2023-04-03T13:42:46.169Z,67.65
2023-04-03T13:43:50.720Z,67.14
2023-04-03T13:45:21.676Z,66.99
2023-04-03T13:46:28.758Z,66.91
2023-04-03T13:47:40.966Z,66.77
2023-04-03T13:48:52.560Z,67.12
2023-04-03T13:50:14.036Z,67.13
2023-04-03T13:51:16.936Z,67.26
2023-04-03T13:52:37.015Z,67.76
2023-04-03T13:53:49.147Z,66.99
2023-04-03T13:54:55.942Z,67.36
2023-04-03T13:56:08.669Z,67.19
2023-04-03T13:57:15.968Z,66.96
2023-04-03T13:58:54.823Z,66.95
2023-04-03T13:59:58.091Z,67.03
2023-04-03T14:01:19.648Z,66.87
2023-04-03T14:02:34.430Z,66.96
2023-04-03T14:04:02.065Z,66.11
2023-04-03T14:05:09.331Z,66.26
2023-04-03T14:06:16.572Z,66.47
2023-04-03T14:07:22.336Z,67.22
2023-04-03T14:08:39.728Z,66.82
2023-04-03T14:09:45.679Z,66.69
2023-04-03T14:10:50.813Z,67.34
2023-04-03T14:11:58.757Z,67.53
2023-04-03T14:13:01.661Z,67.71
2023-04-03T14:14:14.091Z,66.99
2023-04-03T14:15:32.742Z,66.82
2023-04-03T14:16:41.971Z,66.53
2023-04-03T14:17:45.215Z,66.69
2023-04-03T14:18:49.326Z,66.66
2023-04-03T14:19:53.236Z,66.57
2023-04-03T14:20:56.243Z,66.32
2023-04-03T14:22:01.342Z,66.95
2023-04-03T14:23:04.211Z,66.90
2023-04-03T14:24:08.142Z,66.81
2023-04-03T14:25:11.276Z,66.55
2023-04-03T14:26:32.121Z,66.35
2023-04-03T14:27:41.293Z,66.67
2023-04-03T14:28:46.227Z,66.43
2023-04-03T14:29:50.483Z,66.08
2023-04-03T14:30:53.873Z,66.52
2023-04-03T14:32:11.619Z,66.42
2023-04-03T14:33:22.973Z,66.06
2023-04-03T14:34:25.944Z,66.10
2023-04-03T14:35:29.009Z,66.05